sensor_id;sensor_type;location;lat;lon;timestamp;pressure;altitude;pressure_sealevel;temperature;humidity
76054;BME280;64752;48.870;9.082;2023-09-19T00:00:23;97568.97;;;16.87;100.00
76054;BME280;64752;48.870;9.082;2023-09-19T00:02:56;97573.63;;;16.82;100.00
76054;BME280;64752;48.870;9.082;2023-09-19T00:05:25;97574.50;;;16.83;100.00
76054;BME280;64752;48.870;9.082;2023-09-19T00:07:53;97580.03;;;16.78;100.00
76054;BME280;64752;48.870;9.082;2023-09-19T00:10:20;97589.88;;;16.74;100.00
76054;BME280;64752;48.870;9.082;2023-09-19T00:12:47;97588.72;;;16.79;100.00
76054;BME280;64752;48.870;9.082;2023-09-19T00:15:13;97587.50;;;16.84;100.00
76054;BME280;64752;48.870;9.082;2023-09-19T00:17:38;97595.50;;;16.81;100.00
76054;BME280;64752;48.870;9.082;2023-09-19T00:20:06;97593.56;;;16.85;100.00
76054;BME280;64752;48.870;9.082;2023-09-19T00:22:41;97598.50;;;16.89;100.00
76054;BME280;64752;48.870;9.082;2023-09-19T00:25:09;97605.41;;;16.90;100.00
76054;BME280;64752;48.870;9.082;2023-09-19T00:27:37;97598.50;;;16.89;100.00
76054;BME280;64752;48.870;9.082;2023-09-19T00:30:06;97602.25;;;16.85;100.00
76054;BME280;64752;48.870;9.082;2023-09-19T00:32:33;97602.06;;;16.88;100.00
76054;BME280;64752;48.870;9.082;2023-09-19T00:34:58;97600.50;;;16.86;100.00
76054;BME280;64752;48.870;9.082;2023-09-19T00:37:24;97604.03;;;16.85;100.00
76054;BME280;64752;48.870;9.082;2023-09-19T00:39:49;97612.00;;;16.83;100.00
76054;BME280;64752;48.870;9.082;2023-09-19T00:42:21;97604.13;;;16.83;100.00
76054;BME280;64752;48.870;9.082;2023-09-19T00:44:47;97606.56;;;16.86;100.00
76054;BME280;64752;48.870;9.082;2023-09-19T00:47:13;97603.84;;;16.88;100.00
76054;BME280;64752;48.870;9.082;2023-09-19T00:49:46;97614.63;;;16.83;100.00
76054;BME280;64752;48.870;9.082;2023-09-19T00:52:15;97611.91;;;16.85;100.00
76054;BME280;64752;48.870;9.082;2023-09-19T00:54:41;97614.31;;;16.88;100.00
76054;BME280;64752;48.870;9.082;2023-09-19T00:57:06;97620.47;;;16.87;100.00
76054;BME280;64752;48.870;9.082;2023-09-19T00:59:33;97617.88;;;16.87;100.00
76054;BME280;64752;48.870;9.082;2023-09-19T01:02:02;97619.03;;;16.83;100.00
76054;BME280;64752;48.870;9.082;2023-09-19T01:04:28;97611.06;;;16.84;100.00
76054;BME280;64752;48.870;9.082;2023-09-19T01:06:54;97619.56;;;16.88;100.00
76054;BME280;64752;48.870;9.082;2023-09-19T01:09:20;97620.38;;;16.88;100.00
76054;BME280;64752;48.870;9.082;2023-09-19T01:11:48;97626.78;;;16.84;100.00
76054;BME280;64752;48.870;9.082;2023-09-19T01:14:37;97624.88;;;16.86;100.00
76054;BME280;64752;48.870;9.082;2023-09-19T01:17:14;97637.06;;;16.87;100.00
76054;BME280;64752;48.870;9.082;2023-09-19T01:20:03;97631.91;;;16.86;100.00
76054;BME280;64752;48.870;9.082;2023-09-19T01:23:42;97630.03;;;16.88;100.00
76054;BME280;64752;48.870;9.082;2023-09-19T01:30:57;97646.03;;;16.83;100.00
76054;BME280;64752;48.870;9.082;2023-09-19T01:33:24;97643.81;;;16.77;100.00
76054;BME280;64752;48.870;9.082;2023-09-19T01:35:51;97644.94;;;16.73;100.00
76054;BME280;64752;48.870;9.082;2023-09-19T01:38:19;97643.34;;;16.70;100.00
76054;BME280;64752;48.870;9.082;2023-09-19T01:40:57;97650.69;;;16.65;100.00
76054;BME280;64752;48.870;9.082;2023-09-19T01:43:41;97650.06;;;16.62;100.00
76054;BME280;64752;48.870;9.082;2023-09-19T01:46:15;97647.09;;;16.53;100.00
76054;BME280;64752;48.870;9.082;2023-09-19T01:52:09;97650.03;;;16.49;100.00
76054;BME280;64752;48.870;9.082;2023-09-19T01:54:46;97655.44;;;16.46;100.00
76054;BME280;64752;48.870;9.082;2023-09-19T01:57:26;97653.22;;;16.40;100.00
76054;BME280;64752;48.870;9.082;2023-09-19T02:00:14;97670.34;;;16.31;100.00
76054;BME280;64752;48.870;9.082;2023-09-19T02:02:46;97669.34;;;16.19;100.00
76054;BME280;64752;48.870;9.082;2023-09-19T02:05:23;97677.31;;;16.17;100.00
76054;BME280;64752;48.870;9.082;2023-09-19T02:07:52;97672.44;;;16.11;100.00
76054;BME280;64752;48.870;9.082;2023-09-19T02:10:18;97673.69;;;16.06;100.00
76054;BME280;64752;48.870;9.082;2023-09-19T02:12:44;97676.38;;;16.04;100.00
76054;BME280;64752;48.870;9.082;2023-09-19T02:15:10;97674.72;;;16.03;100.00
76054;BME280;64752;48.870;9.082;2023-09-19T02:17:35;97668.38;;;15.93;100.00
76054;BME280;64752;48.870;9.082;2023-09-19T02:20:01;97672.94;;;15.89;100.00
76054;BME280;64752;48.870;9.082;2023-09-19T02:22:27;97667.28;;;15.83;100.00
76054;BME280;64752;48.870;9.082;2023-09-19T02:24:53;97673.72;;;15.77;100.00
76054;BME280;64752;48.870;9.082;2023-09-19T02:27:19;97673.13;;;15.72;100.00
76054;BME280;64752;48.870;9.082;2023-09-19T02:29:44;97668.75;;;15.72;100.00
76054;BME280;64752;48.870;9.082;2023-09-19T02:32:10;97680.97;;;15.72;100.00
76054;BME280;64752;48.870;9.082;2023-09-19T02:34:36;97679.38;;;15.69;100.00
76054;BME280;64752;48.870;9.082;2023-09-19T02:37:03;97681.53;;;15.63;100.00
76054;BME280;64752;48.870;9.082;2023-09-19T02:39:30;97686.84;;;15.61;100.00
76054;BME280;64752;48.870;9.082;2023-09-19T02:41:56;97684.50;;;15.56;100.00
76054;BME280;64752;48.870;9.082;2023-09-19T02:44:21;97687.69;;;15.61;100.00
76054;BME280;64752;48.870;9.082;2023-09-19T02:46:46;97690.31;;;15.61;100.00
76054;BME280;64752;48.870;9.082;2023-09-19T02:49:12;97692.53;;;15.68;100.00
76054;BME280;64752;48.870;9.082;2023-09-19T02:51:38;97698.88;;;15.64;100.00
76054;BME280;64752;48.870;9.082;2023-09-19T02:54:04;97690.22;;;15.63;100.00
76054;BME280;64752;48.870;9.082;2023-09-19T02:56:29;97696.00;;;15.68;100.00
76054;BME280;64752;48.870;9.082;2023-09-19T02:58:56;97700.50;;;15.66;100.00
76054;BME280;64752;48.870;9.082;2023-09-19T03:01:21;97707.03;;;15.73;100.00
76054;BME280;64752;48.870;9.082;2023-09-19T03:03:47;97707.81;;;15.75;100.00
76054;BME280;64752;48.870;9.082;2023-09-19T03:06:13;97707.44;;;15.82;100.00
76054;BME280;64752;48.870;9.082;2023-09-19T03:08:38;97715.75;;;15.88;100.00
76054;BME280;64752;48.870;9.082;2023-09-19T03:11:05;97707.03;;;15.88;100.00
76054;BME280;64752;48.870;9.082;2023-09-19T03:13:32;97712.84;;;15.93;100.00
76054;BME280;64752;48.870;9.082;2023-09-19T03:15:57;97716.19;;;15.95;100.00
76054;BME280;64752;48.870;9.082;2023-09-19T03:18:26;97721.63;;;15.92;100.00
76054;BME280;64752;48.870;9.082;2023-09-19T03:20:55;97717.06;;;15.95;100.00
76054;BME280;64752;48.870;9.082;2023-09-19T03:23:21;97718.81;;;15.95;100.00
76054;BME280;64752;48.870;9.082;2023-09-19T03:25:46;97721.25;;;15.98;100.00
76054;BME280;64752;48.870;9.082;2023-09-19T03:28:13;97716.66;;;16.02;100.00
76054;BME280;64752;48.870;9.082;2023-09-19T03:30:38;97716.19;;;15.95;100.00
76054;BME280;64752;48.870;9.082;2023-09-19T03:33:04;97729.00;;;15.85;100.00
76054;BME280;64752;48.870;9.082;2023-09-19T03:35:30;97724.03;;;15.80;100.00
76054;BME280;64752;48.870;9.082;2023-09-19T03:37:56;97722.72;;;15.73;100.00
76054;BME280;64752;48.870;9.082;2023-09-19T03:40:24;97730.16;;;15.65;100.00
76054;BME280;64752;48.870;9.082;2023-09-19T03:42:51;97733.06;;;15.60;100.00
76054;BME280;64752;48.870;9.082;2023-09-19T03:45:16;97720.44;;;15.53;100.00
76054;BME280;64752;48.870;9.082;2023-09-19T03:47:43;97726.53;;;15.53;100.00
76054;BME280;64752;48.870;9.082;2023-09-19T03:50:09;97724.66;;;15.55;100.00
76054;BME280;64752;48.870;9.082;2023-09-19T03:52:40;97722.41;;;15.49;100.00
76054;BME280;64752;48.870;9.082;2023-09-19T03:55:06;97709.63;;;15.45;100.00
76054;BME280;64752;48.870;9.082;2023-09-19T03:57:32;97722.84;;;15.41;100.00
76054;BME280;64752;48.870;9.082;2023-09-19T03:59:58;97725.56;;;15.40;100.00
76054;BME280;64752;48.870;9.082;2023-09-19T04:02:24;97730.59;;;15.43;100.00
76054;BME280;64752;48.870;9.082;2023-09-19T04:04:53;97720.31;;;15.40;100.00
76054;BME280;64752;48.870;9.082;2023-09-19T04:07:19;97713.34;;;15.40;100.00
76054;BME280;64752;48.870;9.082;2023-09-19T04:09:48;97710.53;;;15.43;100.00
76054;BME280;64752;48.870;9.082;2023-09-19T04:12:14;97711.41;;;15.44;100.00
76054;BME280;64752;48.870;9.082;2023-09-19T04:14:42;97720.06;;;15.45;100.00
76054;BME280;64752;48.870;9.082;2023-09-19T04:17:07;97720.16;;;15.43;100.00
76054;BME280;64752;48.870;9.082;2023-09-19T04:19:32;97720.06;;;15.45;100.00
76054;BME280;64752;48.870;9.082;2023-09-19T04:21:58;97733.06;;;15.46;100.00
76054;BME280;64752;48.870;9.082;2023-09-19T04:24:24;97727.06;;;15.58;100.00
76054;BME280;64752;48.870;9.082;2023-09-19T04:26:49;97728.09;;;15.56;100.00
76054;BME280;64752;48.870;9.082;2023-09-19T04:29:14;97734.00;;;15.59;100.00
76054;BME280;64752;48.870;9.082;2023-09-19T04:31:40;97728.59;;;15.63;100.00
76054;BME280;64752;48.870;9.082;2023-09-19T04:34:09;97731.38;;;15.59;100.00
76054;BME280;64752;48.870;9.082;2023-09-19T04:36:35;97736.22;;;15.66;100.00
76054;BME280;64752;48.870;9.082;2023-09-19T04:39:02;97741.38;;;15.67;100.00
76054;BME280;64752;48.870;9.082;2023-09-19T04:41:30;97740.78;;;15.62;100.00
76054;BME280;64752;48.870;9.082;2023-09-19T04:43:55;97738.47;;;15.57;100.00
76054;BME280;64752;48.870;9.082;2023-09-19T04:46:21;97754.81;;;15.61;100.00
76054;BME280;64752;48.870;9.082;2023-09-19T04:48:46;97753.00;;;15.77;100.00
76054;BME280;64752;48.870;9.082;2023-09-19T04:51:12;97752.34;;;15.74;100.00
76054;BME280;64752;48.870;9.082;2023-09-19T04:53:38;97755.00;;;15.72;100.00
76054;BME280;64752;48.870;9.082;2023-09-19T04:56:04;97768.25;;;15.69;100.00
76054;BME280;64752;48.870;9.082;2023-09-19T04:58:31;97779.91;;;15.64;100.00
76054;BME280;64752;48.870;9.082;2023-09-19T05:00:57;97779.47;;;15.57;100.00
76054;BME280;64752;48.870;9.082;2023-09-19T05:03:23;97783.16;;;15.53;100.00
76054;BME280;64752;48.870;9.082;2023-09-19T05:05:48;97778.06;;;15.51;100.00
76054;BME280;64752;48.870;9.082;2023-09-19T05:08:14;97783.38;;;15.50;100.00
76054;BME280;64752;48.870;9.082;2023-09-19T05:10:40;97795.22;;;15.55;100.00
76054;BME280;64752;48.870;9.082;2023-09-19T05:13:06;97806.06;;;15.64;100.00
76054;BME280;64752;48.870;9.082;2023-09-19T05:15:33;97802.59;;;15.63;100.00
76054;BME280;64752;48.870;9.082;2023-09-19T05:18:01;97797.09;;;15.53;100.00
76054;BME280;64752;48.870;9.082;2023-09-19T05:24:19;97811.25;;;15.49;100.00
76054;BME280;64752;48.870;9.082;2023-09-19T05:38:03;97813.03;;;15.49;100.00
76054;BME280;64752;48.870;9.082;2023-09-19T05:40:34;97816.38;;;15.51;100.00
76054;BME280;64752;48.870;9.082;2023-09-19T05:43:00;97823.31;;;15.52;100.00
76054;BME280;64752;48.870;9.082;2023-09-19T05:45:26;97829.19;;;15.55;100.00
76054;BME280;64752;48.870;9.082;2023-09-19T05:47:53;97839.06;;;15.50;100.00
76054;BME280;64752;48.870;9.082;2023-09-19T05:50:26;97839.75;;;15.54;100.00
76054;BME280;64752;48.870;9.082;2023-09-19T05:52:52;97845.09;;;15.36;100.00
76054;BME280;64752;48.870;9.082;2023-09-19T05:55:18;97852.78;;;15.23;100.00
76054;BME280;64752;48.870;9.082;2023-09-19T05:57:49;97853.56;;;15.10;100.00
76054;BME280;64752;48.870;9.082;2023-09-19T06:00:15;97851.91;;;14.93;100.00
76054;BME280;64752;48.870;9.082;2023-09-19T06:02:43;97852.97;;;14.89;100.00
76054;BME280;64752;48.870;9.082;2023-09-19T06:05:10;97855.84;;;14.84;100.00
76054;BME280;64752;48.870;9.082;2023-09-19T06:07:36;97857.34;;;14.88;100.00
76054;BME280;64752;48.870;9.082;2023-09-19T06:10:06;97868.41;;;14.93;100.00
76054;BME280;64752;48.870;9.082;2023-09-19T06:12:32;97874.97;;;15.00;100.00
76054;BME280;64752;48.870;9.082;2023-09-19T06:14:59;97870.25;;;15.07;100.00
76054;BME280;64752;48.870;9.082;2023-09-19T06:17:25;97865.44;;;15.15;100.00
76054;BME280;64752;48.870;9.082;2023-09-19T06:19:52;97874.03;;;15.17;100.00
76054;BME280;64752;48.870;9.082;2023-09-19T06:22:17;97876.03;;;15.28;100.00
76054;BME280;64752;48.870;9.082;2023-09-19T06:24:45;97868.50;;;15.38;100.00
76054;BME280;64752;48.870;9.082;2023-09-19T06:27:12;97866.25;;;15.48;100.00
76054;BME280;64752;48.870;9.082;2023-09-19T06:29:38;97866.25;;;15.62;100.00
76054;BME280;64752;48.870;9.082;2023-09-19T06:32:07;97873.50;;;15.73;100.00
76054;BME280;64752;48.870;9.082;2023-09-19T06:34:36;97869.56;;;15.96;100.00
76054;BME280;64752;48.870;9.082;2023-09-19T06:37:04;97869.25;;;16.45;100.00
76054;BME280;64752;48.870;9.082;2023-09-19T06:39:31;97862.22;;;16.60;100.00
76054;BME280;64752;48.870;9.082;2023-09-19T06:41:56;97865.91;;;16.99;100.00
76054;BME280;64752;48.870;9.082;2023-09-19T06:44:22;97867.53;;;17.14;100.00
76054;BME280;64752;48.870;9.082;2023-09-19T06:46:50;97868.75;;;17.23;100.00
76054;BME280;64752;48.870;9.082;2023-09-19T06:49:16;97870.66;;;17.34;100.00
76054;BME280;64752;48.870;9.082;2023-09-19T06:51:42;97866.31;;;17.20;100.00
76054;BME280;64752;48.870;9.082;2023-09-19T06:54:08;97868.19;;;17.18;100.00
76054;BME280;64752;48.870;9.082;2023-09-19T06:56:33;97871.53;;;17.47;100.00
76054;BME280;64752;48.870;9.082;2023-09-19T06:59:02;97876.63;;;17.63;98.06
76054;BME280;64752;48.870;9.082;2023-09-19T07:01:28;97872.59;;;17.45;100.00
76054;BME280;64752;48.870;9.082;2023-09-19T07:03:54;97891.78;;;17.45;98.54
76054;BME280;64752;48.870;9.082;2023-09-19T07:06:19;97897.66;;;17.49;97.38
76054;BME280;64752;48.870;9.082;2023-09-19T07:08:45;97896.81;;;17.21;98.46
76054;BME280;64752;48.870;9.082;2023-09-19T07:11:10;97901.25;;;17.06;100.00
76054;BME280;64752;48.870;9.082;2023-09-19T07:13:37;97908.06;;;17.09;100.00
76054;BME280;64752;48.870;9.082;2023-09-19T07:16:03;97909.63;;;16.99;100.00
76054;BME280;64752;48.870;9.082;2023-09-19T07:18:29;97902.66;;;17.12;100.00
76054;BME280;64752;48.870;9.082;2023-09-19T07:20:57;97918.91;;;17.31;100.00
76054;BME280;64752;48.870;9.082;2023-09-19T07:23:30;97918.66;;;17.07;100.00
76054;BME280;64752;48.870;9.082;2023-09-19T07:26:00;97915.78;;;17.39;100.00
76054;BME280;64752;48.870;9.082;2023-09-19T07:28:30;97927.97;;;18.07;97.15
76054;BME280;64752;48.870;9.082;2023-09-19T07:30:56;97930.81;;;18.30;97.07
76054;BME280;64752;48.870;9.082;2023-09-19T07:33:21;97928.91;;;18.32;94.63
76054;BME280;64752;48.870;9.082;2023-09-19T07:35:47;97941.63;;;18.77;89.90
76054;BME280;64752;48.870;9.082;2023-09-19T07:38:13;97936.69;;;18.98;89.65
76054;BME280;64752;48.870;9.082;2023-09-19T07:40:39;97939.59;;;19.19;87.90
76054;BME280;64752;48.870;9.082;2023-09-19T07:43:05;97946.84;;;19.15;87.77
76054;BME280;64752;48.870;9.082;2023-09-19T07:45:32;97945.28;;;19.74;84.90
76054;BME280;64752;48.870;9.082;2023-09-19T07:47:57;97945.81;;;18.79;88.03
76054;BME280;64752;48.870;9.082;2023-09-19T07:50:23;97946.25;;;19.36;87.38
76054;BME280;64752;48.870;9.082;2023-09-19T07:52:49;97952.94;;;19.77;82.69
76054;BME280;64752;48.870;9.082;2023-09-19T07:55:18;97949.13;;;19.81;81.74
76054;BME280;64752;48.870;9.082;2023-09-19T07:57:44;97953.66;;;20.03;83.04
76054;BME280;64752;48.870;9.082;2023-09-19T08:00:11;97956.38;;;19.53;84.34
76054;BME280;64752;48.870;9.082;2023-09-19T08:02:37;97969.38;;;20.27;80.65
76054;BME280;64752;48.870;9.082;2023-09-19T08:05:10;97966.28;;;20.69;79.52
76054;BME280;64752;48.870;9.082;2023-09-19T08:07:40;97964.25;;;21.84;72.75
76054;BME280;64752;48.870;9.082;2023-09-19T08:10:07;97969.75;;;22.55;66.74
76054;BME280;64752;48.870;9.082;2023-09-19T08:12:34;97969.19;;;22.51;68.71
76054;BME280;64752;48.870;9.082;2023-09-19T08:15:02;97968.50;;;23.01;65.84
76054;BME280;64752;48.870;9.082;2023-09-19T08:17:28;97970.59;;;23.58;64.22
76054;BME280;64752;48.870;9.082;2023-09-19T08:19:53;97969.47;;;21.95;69.87
76054;BME280;64752;48.870;9.082;2023-09-19T08:22:19;97978.22;;;23.32;64.74
76054;BME280;64752;48.870;9.082;2023-09-19T08:24:45;97971.63;;;24.54;61.34
76054;BME280;64752;48.870;9.082;2023-09-19T08:27:11;97974.75;;;23.31;62.92
76054;BME280;64752;48.870;9.082;2023-09-19T08:29:37;97970.34;;;23.61;62.52
76054;BME280;64752;48.870;9.082;2023-09-19T08:32:03;97974.00;;;23.19;63.14
76054;BME280;64752;48.870;9.082;2023-09-19T08:34:29;97971.41;;;24.75;58.32
76054;BME280;64752;48.870;9.082;2023-09-19T08:36:58;97971.38;;;24.28;57.94
76054;BME280;64752;48.870;9.082;2023-09-19T08:39:24;97972.19;;;24.58;56.60
76054;BME280;64752;48.870;9.082;2023-09-19T08:41:49;97968.41;;;24.41;56.69
76054;BME280;64752;48.870;9.082;2023-09-19T08:44:15;97974.88;;;23.29;60.31
76054;BME280;64752;48.870;9.082;2023-09-19T08:46:41;97988.25;;;23.98;58.59
76054;BME280;64752;48.870;9.082;2023-09-19T08:49:24;97993.63;;;24.74;56.18
76054;BME280;64752;48.870;9.082;2023-09-19T08:52:01;97997.03;;;23.89;58.32
76054;BME280;64752;48.870;9.082;2023-09-19T08:54:35;97998.41;;;24.41;55.66
76054;BME280;64752;48.870;9.082;2023-09-19T08:57:04;97992.84;;;24.25;53.78
76054;BME280;64752;48.870;9.082;2023-09-19T08:59:33;97999.94;;;24.44;54.19
76054;BME280;64752;48.870;9.082;2023-09-19T09:02:00;98000.22;;;23.01;55.46
76054;BME280;64752;48.870;9.082;2023-09-19T09:04:26;97994.78;;;24.13;53.05
76054;BME280;64752;48.870;9.082;2023-09-19T09:06:53;97989.78;;;23.81;52.73
76054;BME280;64752;48.870;9.082;2023-09-19T09:09:20;97994.88;;;23.63;53.68
76054;BME280;64752;48.870;9.082;2023-09-19T09:11:48;97993.34;;;24.48;52.51
76054;BME280;64752;48.870;9.082;2023-09-19T09:14:16;97988.34;;;24.65;50.46
76054;BME280;64752;48.870;9.082;2023-09-19T09:16:42;97996.91;;;24.19;52.63
76054;BME280;64752;48.870;9.082;2023-09-19T09:19:07;98001.97;;;23.62;53.78
76054;BME280;64752;48.870;9.082;2023-09-19T09:21:33;97993.59;;;22.23;55.87
76054;BME280;64752;48.870;9.082;2023-09-19T09:24:55;97989.53;;;21.20;57.13
76054;BME280;64752;48.870;9.082;2023-09-19T09:27:23;97995.63;;;21.54;57.13
76054;BME280;64752;48.870;9.082;2023-09-19T09:29:50;97992.91;;;23.05;53.74
76054;BME280;64752;48.870;9.082;2023-09-19T09:32:16;97991.84;;;22.44;54.55
76054;BME280;64752;48.870;9.082;2023-09-19T09:34:56;97993.00;;;22.82;54.25
76054;BME280;64752;48.870;9.082;2023-09-19T09:37:22;97996.34;;;23.36;51.59
76054;BME280;64752;48.870;9.082;2023-09-19T09:39:56;97995.34;;;24.27;51.18
76054;BME280;64752;48.870;9.082;2023-09-19T09:45:21;97994.03;;;23.72;52.66
76054;BME280;64752;48.870;9.082;2023-09-19T09:47:56;97994.91;;;24.60;50.74
76054;BME280;64752;48.870;9.082;2023-09-19T09:52:55;97988.72;;;25.17;46.77
76054;BME280;64752;48.870;9.082;2023-09-19T09:55:27;97991.06;;;25.30;47.22
76054;BME280;64752;48.870;9.082;2023-09-19T09:58:17;97988.22;;;25.04;48.21
76054;BME280;64752;48.870;9.082;2023-09-19T10:00:53;97988.69;;;25.54;48.21
76054;BME280;64752;48.870;9.082;2023-09-19T10:03:36;97987.63;;;24.72;48.35
76054;BME280;64752;48.870;9.082;2023-09-19T10:06:06;97988.88;;;25.89;44.61
76054;BME280;64752;48.870;9.082;2023-09-19T10:09:12;97989.84;;;26.15;45.73
76054;BME280;64752;48.870;9.082;2023-09-19T10:12:07;97991.84;;;26.40;43.71
76054;BME280;64752;48.870;9.082;2023-09-19T10:14:38;97989.47;;;28.17;39.24
76054;BME280;64752;48.870;9.082;2023-09-19T10:17:09;97982.06;;;26.92;41.60
76054;BME280;64752;48.870;9.082;2023-09-19T10:19:56;97983.34;;;24.99;45.12
76054;BME280;64752;48.870;9.082;2023-09-19T10:22:30;97972.19;;;24.29;46.26
76054;BME280;64752;48.870;9.082;2023-09-19T10:24:57;97973.50;;;25.19;45.16
76054;BME280;64752;48.870;9.082;2023-09-19T10:27:26;97972.81;;;25.17;44.54
76054;BME280;64752;48.870;9.082;2023-09-19T10:29:52;97970.94;;;24.33;46.12
76054;BME280;64752;48.870;9.082;2023-09-19T10:32:22;97960.56;;;24.49;46.05
76054;BME280;64752;48.870;9.082;2023-09-19T10:34:48;97965.69;;;24.80;46.20
76054;BME280;64752;48.870;9.082;2023-09-19T10:37:15;97969.16;;;25.28;44.49
76054;BME280;64752;48.870;9.082;2023-09-19T10:39:45;97970.16;;;26.08;42.53
76054;BME280;64752;48.870;9.082;2023-09-19T10:42:14;97971.38;;;25.23;43.43
76054;BME280;64752;48.870;9.082;2023-09-19T10:44:45;97976.28;;;25.91;43.12
76054;BME280;64752;48.870;9.082;2023-09-19T10:47:11;97972.84;;;24.70;44.18
76054;BME280;64752;48.870;9.082;2023-09-19T10:49:43;97972.97;;;24.68;43.93
76054;BME280;64752;48.870;9.082;2023-09-19T10:52:15;97976.66;;;24.28;45.25
76054;BME280;64752;48.870;9.082;2023-09-19T10:54:47;97978.09;;;23.43;46.63
76054;BME280;64752;48.870;9.082;2023-09-19T10:57:24;97981.31;;;25.20;43.42
76054;BME280;64752;48.870;9.082;2023-09-19T11:00:08;97978.06;;;25.54;43.09
76054;BME280;64752;48.870;9.082;2023-09-19T11:05:39;97980.25;;;25.41;46.57
76054;BME280;64752;48.870;9.082;2023-09-19T11:08:07;97975.91;;;25.68;46.71
76054;BME280;64752;48.870;9.082;2023-09-19T11:10:49;97981.16;;;24.85;48.88
76054;BME280;64752;48.870;9.082;2023-09-19T11:13:31;97977.06;;;24.33;49.93
76054;BME280;64752;48.870;9.082;2023-09-19T11:26:48;97967.03;;;27.09;43.88
76054;BME280;64752;48.870;9.082;2023-09-19T11:29:30;97961.72;;;28.92;39.87
76054;BME280;64752;48.870;9.082;2023-09-19T11:31:57;97950.78;;;25.34;46.43
76054;BME280;64752;48.870;9.082;2023-09-19T11:42:44;97947.84;;;27.32;42.42
76054;BME280;64752;48.870;9.082;2023-09-19T11:48:18;97957.34;;;27.43;42.76
76054;BME280;64752;48.870;9.082;2023-09-19T11:50:44;97946.31;;;27.97;41.52
76054;BME280;64752;48.870;9.082;2023-09-19T11:53:13;97948.50;;;27.26;41.36
76054;BME280;64752;48.870;9.082;2023-09-19T11:55:42;97943.50;;;29.03;38.70
76054;BME280;64752;48.870;9.082;2023-09-19T11:58:08;97944.31;;;30.44;36.20
76054;BME280;64752;48.870;9.082;2023-09-19T12:00:35;97935.25;;;29.53;36.64
76054;BME280;64752;48.870;9.082;2023-09-19T12:03:08;97937.78;;;26.31;42.15
76054;BME280;64752;48.870;9.082;2023-09-19T12:05:34;97936.72;;;26.50;41.21
76054;BME280;64752;48.870;9.082;2023-09-19T12:08:02;97937.81;;;29.07;37.45
76054;BME280;64752;48.870;9.082;2023-09-19T12:10:28;97932.16;;;29.01;38.04
76054;BME280;64752;48.870;9.082;2023-09-19T12:12:54;97931.00;;;28.96;36.69
76054;BME280;64752;48.870;9.082;2023-09-19T12:15:27;97917.88;;;28.78;35.87
76054;BME280;64752;48.870;9.082;2023-09-19T12:17:54;97919.94;;;27.61;37.17
76054;BME280;64752;48.870;9.082;2023-09-19T12:20:19;97927.47;;;27.23;37.64
76054;BME280;64752;48.870;9.082;2023-09-19T12:22:46;97927.78;;;27.79;36.72
76054;BME280;64752;48.870;9.082;2023-09-19T12:25:13;97923.88;;;27.32;37.29
76054;BME280;64752;48.870;9.082;2023-09-19T12:27:45;97909.41;;;27.51;37.48
76054;BME280;64752;48.870;9.082;2023-09-19T12:30:15;97904.94;;;28.34;36.84
76054;BME280;64752;48.870;9.082;2023-09-19T12:32:43;97909.75;;;28.46;35.89
76054;BME280;64752;48.870;9.082;2023-09-19T12:35:09;97900.16;;;29.33;35.20
76054;BME280;64752;48.870;9.082;2023-09-19T12:37:37;97900.00;;;27.98;36.37
76054;BME280;64752;48.870;9.082;2023-09-19T12:40:11;97897.00;;;28.09;36.60
76054;BME280;64752;48.870;9.082;2023-09-19T12:42:43;97896.41;;;28.71;36.77
76054;BME280;64752;48.870;9.082;2023-09-19T12:45:10;97904.28;;;27.74;36.30
76054;BME280;64752;48.870;9.082;2023-09-19T12:47:38;97896.44;;;27.48;36.41
76054;BME280;64752;48.870;9.082;2023-09-19T12:50:15;97893.34;;;28.02;36.91
76054;BME280;64752;48.870;9.082;2023-09-19T12:52:45;97901.66;;;27.99;36.05
76054;BME280;64752;48.870;9.082;2023-09-19T12:58:14;97883.28;;;27.71;35.44
76054;BME280;64752;48.870;9.082;2023-09-19T13:00:45;97883.63;;;29.29;34.88
76054;BME280;64752;48.870;9.082;2023-09-19T13:06:07;97886.50;;;27.91;36.58
76054;BME280;64752;48.870;9.082;2023-09-19T13:08:36;97883.00;;;28.79;34.39
76054;BME280;64752;48.870;9.082;2023-09-19T13:11:14;97883.63;;;27.52;37.55
76054;BME280;64752;48.870;9.082;2023-09-19T13:13:51;97884.44;;;28.34;36.01
76054;BME280;64752;48.870;9.082;2023-09-19T13:16:21;97877.44;;;26.92;37.74
76054;BME280;64752;48.870;9.082;2023-09-19T13:18:54;97875.13;;;26.97;37.53
76054;BME280;64752;48.870;9.082;2023-09-19T13:23:55;97884.47;;;27.85;37.05
76054;BME280;64752;48.870;9.082;2023-09-19T13:26:27;97878.84;;;27.96;38.61
76054;BME280;64752;48.870;9.082;2023-09-19T13:28:56;97873.22;;;26.47;39.08
76054;BME280;64752;48.870;9.082;2023-09-19T13:31:21;97876.78;;;27.49;36.90
76054;BME280;64752;48.870;9.082;2023-09-19T13:33:48;97872.81;;;27.61;37.27
76054;BME280;64752;48.870;9.082;2023-09-19T13:36:13;97870.63;;;26.98;37.92
76054;BME280;64752;48.870;9.082;2023-09-19T13:38:42;97863.44;;;26.21;39.52
76054;BME280;64752;48.870;9.082;2023-09-19T13:41:14;97860.47;;;24.98;41.25
76054;BME280;64752;48.870;9.082;2023-09-19T13:43:39;97855.31;;;25.43;41.47
76054;BME280;64752;48.870;9.082;2023-09-19T13:46:05;97863.91;;;25.36;41.51
76054;BME280;64752;48.870;9.082;2023-09-19T13:48:33;97866.94;;;26.90;39.19
76054;BME280;64752;48.870;9.082;2023-09-19T13:51:01;97856.75;;;26.17;39.66
76054;BME280;64752;48.870;9.082;2023-09-19T13:53:26;97851.22;;;25.48;41.41
76054;BME280;64752;48.870;9.082;2023-09-19T13:55:52;97850.00;;;24.97;41.79
76054;BME280;64752;48.870;9.082;2023-09-19T13:58:17;97849.31;;;24.95;41.69
76054;BME280;64752;48.870;9.082;2023-09-19T14:00:43;97851.72;;;24.60;42.62
76054;BME280;64752;48.870;9.082;2023-09-19T14:03:08;97838.25;;;24.72;42.13
76054;BME280;64752;48.870;9.082;2023-09-19T14:05:35;97851.16;;;24.67;43.63